AKT128 CYFB-CYVP
Flight info
| Callsign | AKT128 |
|---|---|
| Flight time | 1h 9m |
| Altitude | 36000 |
| Route | YVP |
| Aircraft | B737/M-SDE2E3FGHIRWXY/LB1 |
Departure
| Time | 2026-04-18 21:40 |
|---|---|
| Airport | Iqaluit Airport (CYFB) |
Arrival
| Time | 2026-04-18 22:49 |
|---|---|
| Airport | Kuujjuaq Airport (CYVP) |
| Time | Latitude | Longitude | Altitude | Speed | Heading |
|---|---|---|---|---|---|
| 2026-04-18 20:45 | 63.75670 | -68.54585 | 93 ft | 0 kts | 45° |
| 2026-04-18 21:29 | 63.75658 | -68.54614 | 94 ft | 4 kts | 45° |
| 2026-04-18 21:29 | 63.75639 | -68.54657 | 93 ft | 4 kts | 45° |
| 2026-04-18 21:30 | 63.75620 | -68.54700 | 93 ft | 4 kts | 45° |
| 2026-04-18 21:30 | 63.75610 | -68.54722 | 93 ft | 1 kts | 45° |
| 2026-04-18 21:35 | 63.75610 | -68.54715 | 91 ft | 1 kts | 79° |
| 2026-04-18 21:36 | 63.75606 | -68.54706 | 91 ft | 1 kts | 125° |
| 2026-04-18 21:36 | 63.75591 | -68.54670 | 92 ft | 5 kts | 137° |
| 2026-04-18 21:36 | 63.75550 | -68.54608 | 93 ft | 9 kts | 149° |
| 2026-04-18 21:36 | 63.75489 | -68.54504 | 94 ft | 13 kts | 137° |
| 2026-04-18 21:37 | 63.75415 | -68.54340 | 93 ft | 17 kts | 134° |
| 2026-04-18 21:37 | 63.75323 | -68.54134 | 93 ft | 20 kts | 136° |
| 2026-04-18 21:37 | 63.75219 | -68.53934 | 93 ft | 20 kts | 139° |
| 2026-04-18 21:37 | 63.75092 | -68.53830 | 94 ft | 19 kts | 150° |
| 2026-04-18 21:38 | 63.74998 | -68.53627 | 96 ft | 18 kts | 135° |
| 2026-04-18 21:38 | 63.74897 | -68.53485 | 94 ft | 18 kts | 195° |
| 2026-04-18 21:38 | 63.74813 | -68.53652 | 92 ft | 12 kts | 222° |
| 2026-04-18 21:38 | 63.74807 | -68.53727 | 91 ft | 4 kts | 317° |
| 2026-04-18 21:39 | 63.74834 | -68.53782 | 90 ft | 6 kts | 317° |
| 2026-04-18 21:39 | 63.74948 | -68.54036 | 92 ft | 58 kts | 315° |
| 2026-04-18 21:39 | 63.75424 | -68.55102 | 97 ft | 132 kts | 315° |
| 2026-04-18 21:39 | 63.76177 | -68.56777 | 469 ft | 162 kts | 316° |
| 2026-04-18 21:40 | 63.77053 | -68.58625 | 1286 ft | 181 kts | 318° |
| 2026-04-18 21:40 | 63.78017 | -68.60588 | 2242 ft | 190 kts | 319° |
| 2026-04-18 21:40 | 63.79016 | -68.62774 | 2733 ft | 215 kts | 314° |
| 2026-04-18 21:40 | 63.80132 | -68.65346 | 3069 ft | 243 kts | 314° |
| 2026-04-18 21:41 | 63.81373 | -68.68170 | 3712 ft | 259 kts | 314° |
| 2026-04-18 21:41 | 63.82652 | -68.71080 | 4838 ft | 262 kts | 313° |
| 2026-04-18 21:41 | 63.83959 | -68.74041 | 5835 ft | 268 kts | 313° |
| 2026-04-18 21:41 | 63.85291 | -68.77043 | 6839 ft | 272 kts | 313° |
| 2026-04-18 21:42 | 63.86637 | -68.80070 | 7832 ft | 274 kts | 312° |
| 2026-04-18 21:42 | 63.87999 | -68.83132 | 8829 ft | 277 kts | 312° |
| 2026-04-18 21:42 | 63.89374 | -68.86220 | 9809 ft | 280 kts | 311° |
| 2026-04-18 21:42 | 63.90757 | -68.89333 | 10555 ft | 290 kts | 311° |
| 2026-04-18 21:43 | 63.92254 | -68.92720 | 10797 ft | 317 kts | 311° |
| 2026-04-18 21:43 | 63.93870 | -68.96380 | 11170 ft | 337 kts | 311° |
| 2026-04-18 21:43 | 63.95522 | -69.00257 | 11936 ft | 343 kts | 308° |
| 2026-04-18 21:43 | 63.97117 | -69.04323 | 12880 ft | 344 kts | 306° |
| 2026-04-18 21:44 | 63.98669 | -69.08495 | 13812 ft | 347 kts | 305° |
| 2026-04-18 21:44 | 64.00192 | -69.12778 | 14628 ft | 348 kts | 303° |
| 2026-04-18 21:44 | 64.01671 | -69.17145 | 15546 ft | 347 kts | 301° |
| 2026-04-18 21:44 | 64.03101 | -69.21576 | 16452 ft | 347 kts | 300° |
| 2026-04-18 21:45 | 64.04495 | -69.26094 | 17320 ft | 348 kts | 298° |
| 2026-04-18 21:45 | 64.05850 | -69.30654 | 18155 ft | 348 kts | 296° |
| 2026-04-18 21:45 | 64.06738 | -69.35681 | 18887 ft | 335 kts | 274° |
| 2026-04-18 21:45 | 64.06725 | -69.40895 | 19736 ft | 327 kts | 258° |
| 2026-04-18 21:46 | 64.06063 | -69.45838 | 20493 ft | 327 kts | 246° |
| 2026-04-18 21:46 | 64.04845 | -69.50197 | 21138 ft | 334 kts | 233° |
| 2026-04-18 21:46 | 64.03062 | -69.53701 | 21790 ft | 347 kts | 218° |
| 2026-04-18 21:46 | 64.00797 | -69.55917 | 22416 ft | 365 kts | 203° |
| 2026-04-18 21:47 | 63.98188 | -69.56443 | 22993 ft | 389 kts | 188° |
| 2026-04-18 21:47 | 63.95471 | -69.56001 | 23557 ft | 397 kts | 186° |
| 2026-04-18 21:47 | 63.92709 | -69.55345 | 23974 ft | 403 kts | 185° |
| 2026-04-18 21:47 | 63.89886 | -69.54598 | 24477 ft | 406 kts | 185° |
| 2026-04-18 21:48 | 63.87071 | -69.53847 | 24969 ft | 409 kts | 185° |
| 2026-04-18 21:48 | 63.84234 | -69.53113 | 25440 ft | 411 kts | 185° |
| 2026-04-18 21:48 | 63.81397 | -69.52406 | 25890 ft | 414 kts | 186° |
| 2026-04-18 21:48 | 63.78510 | -69.51711 | 26338 ft | 416 kts | 186° |
| 2026-04-18 21:49 | 63.75614 | -69.51031 | 26780 ft | 419 kts | 186° |
| 2026-04-18 21:49 | 63.72727 | -69.50362 | 27198 ft | 422 kts | 186° |
| 2026-04-18 21:49 | 63.69776 | -69.49686 | 27617 ft | 424 kts | 186° |
| 2026-04-18 21:49 | 63.66830 | -69.49014 | 28031 ft | 427 kts | 187° |
| 2026-04-18 21:50 | 63.63856 | -69.48339 | 28431 ft | 430 kts | 187° |
| 2026-04-18 21:50 | 63.60888 | -69.47666 | 28811 ft | 432 kts | 187° |
| 2026-04-18 21:50 | 63.57867 | -69.46983 | 29197 ft | 435 kts | 187° |
| 2026-04-18 21:50 | 63.54882 | -69.46308 | 29578 ft | 437 kts | 187° |
| 2026-04-18 21:51 | 63.51849 | -69.45623 | 29925 ft | 440 kts | 187° |
| 2026-04-18 21:51 | 63.48801 | -69.44935 | 30253 ft | 441 kts | 187° |
| 2026-04-18 21:51 | 63.45745 | -69.44242 | 30677 ft | 439 kts | 187° |
| 2026-04-18 21:51 | 63.42721 | -69.43549 | 31219 ft | 435 kts | 187° |
| 2026-04-18 21:52 | 63.39720 | -69.42863 | 31724 ft | 431 kts | 187° |
| 2026-04-18 21:52 | 63.36739 | -69.42191 | 32116 ft | 430 kts | 187° |
| 2026-04-18 21:52 | 63.33758 | -69.41529 | 32452 ft | 430 kts | 187° |
| 2026-04-18 21:52 | 63.30784 | -69.40872 | 32809 ft | 429 kts | 187° |
| 2026-04-18 21:53 | 63.27817 | -69.40216 | 33204 ft | 428 kts | 187° |
| 2026-04-18 21:53 | 63.24860 | -69.39561 | 33556 ft | 427 kts | 187° |
| 2026-04-18 21:53 | 63.21905 | -69.38910 | 33882 ft | 426 kts | 187° |
| 2026-04-18 21:53 | 63.18990 | -69.38271 | 34139 ft | 427 kts | 187° |
| 2026-04-18 21:54 | 63.16021 | -69.37623 | 34324 ft | 429 kts | 186° |
| 2026-04-18 21:54 | 63.13048 | -69.36976 | 34476 ft | 431 kts | 186° |
| 2026-04-18 21:54 | 63.10058 | -69.36325 | 34686 ft | 432 kts | 186° |
| 2026-04-18 21:54 | 63.07066 | -69.35670 | 34915 ft | 432 kts | 186° |
| 2026-04-18 21:55 | 63.04073 | -69.35016 | 35118 ft | 433 kts | 186° |
| 2026-04-18 21:55 | 63.01066 | -69.34362 | 35301 ft | 435 kts | 186° |
| 2026-04-18 21:55 | 62.98051 | -69.33706 | 35512 ft | 435 kts | 186° |
| 2026-04-18 21:55 | 62.95038 | -69.33050 | 35729 ft | 436 kts | 186° |
| 2026-04-18 21:56 | 62.92020 | -69.32396 | 35907 ft | 437 kts | 186° |
| 2026-04-18 21:56 | 62.85918 | -69.31087 | 35954 ft | 442 kts | 186° |
| 2026-04-18 21:57 | 62.79829 | -69.29767 | 35955 ft | 437 kts | 186° |
| 2026-04-18 21:57 | 62.73809 | -69.28464 | 35958 ft | 433 kts | 186° |
| 2026-04-18 21:58 | 62.67823 | -69.27188 | 35954 ft | 430 kts | 186° |
| 2026-04-18 21:58 | 62.61871 | -69.25925 | 36213 ft | 428 kts | 186° |
| 2026-04-18 21:58 | 62.58894 | -69.25302 | 36326 ft | 431 kts | 186° |
| 2026-04-18 21:59 | 62.55949 | -69.24689 | 36435 ft | 434 kts | 186° |
| 2026-04-18 21:59 | 62.52929 | -69.24059 | 36597 ft | 435 kts | 186° |
| 2026-04-18 21:59 | 62.49920 | -69.23426 | 36831 ft | 434 kts | 186° |
| 2026-04-18 21:59 | 62.46916 | -69.22792 | 37048 ft | 434 kts | 186° |
| 2026-04-18 22:00 | 62.43905 | -69.22160 | 37225 ft | 435 kts | 186° |
| 2026-04-18 22:00 | 62.40890 | -69.21529 | 37404 ft | 435 kts | 186° |
| 2026-04-18 22:00 | 62.37870 | -69.20898 | 37601 ft | 435 kts | 186° |
| 2026-04-18 22:00 | 62.34853 | -69.20269 | 37755 ft | 436 kts | 186° |
| 2026-04-18 22:01 | 62.31825 | -69.19641 | 37891 ft | 437 kts | 186° |
| 2026-04-18 22:01 | 62.25771 | -69.18385 | 37947 ft | 437 kts | 186° |
| 2026-04-18 22:02 | 62.19722 | -69.17135 | 37954 ft | 437 kts | 186° |
| 2026-04-18 22:02 | 62.13682 | -69.15887 | 37960 ft | 436 kts | 186° |
| 2026-04-18 22:03 | 62.07640 | -69.14652 | 37942 ft | 436 kts | 186° |
| 2026-04-18 22:03 | 62.01613 | -69.13428 | 37950 ft | 437 kts | 186° |
| 2026-04-18 22:04 | 61.95554 | -69.12199 | 37949 ft | 437 kts | 186° |
| 2026-04-18 22:04 | 61.89485 | -69.10971 | 37939 ft | 438 kts | 186° |
| 2026-04-18 22:05 | 61.83430 | -69.09751 | 37944 ft | 438 kts | 186° |
| 2026-04-18 22:05 | 61.77352 | -69.08531 | 37940 ft | 438 kts | 186° |
| 2026-04-18 22:06 | 61.71291 | -69.07319 | 37940 ft | 437 kts | 186° |
| 2026-04-18 22:06 | 61.65234 | -69.06113 | 37932 ft | 437 kts | 186° |
| 2026-04-18 22:07 | 61.59208 | -69.04918 | 37934 ft | 437 kts | 186° |
| 2026-04-18 22:07 | 61.53155 | -69.03723 | 37930 ft | 437 kts | 186° |
| 2026-04-18 22:08 | 61.47098 | -69.02531 | 37930 ft | 437 kts | 186° |
| 2026-04-18 22:08 | 61.41054 | -69.01347 | 37924 ft | 437 kts | 186° |
| 2026-04-18 22:09 | 61.34994 | -69.00164 | 37924 ft | 437 kts | 186° |
| 2026-04-18 22:09 | 61.28943 | -68.98988 | 37917 ft | 438 kts | 186° |
| 2026-04-18 22:10 | 61.22868 | -68.97812 | 37916 ft | 438 kts | 186° |
| 2026-04-18 22:10 | 61.18112 | -68.96894 | 37910 ft | 438 kts | 186° |
| 2026-04-18 22:11 | 61.12071 | -68.95732 | 37904 ft | 439 kts | 186° |
| 2026-04-18 22:11 | 61.05977 | -68.94564 | 37899 ft | 439 kts | 186° |
| 2026-04-18 22:12 | 60.97530 | -68.92952 | 37906 ft | 439 kts | 185° |
| 2026-04-18 22:12 | 60.91436 | -68.91795 | 37889 ft | 440 kts | 186° |
| 2026-04-18 22:13 | 60.85332 | -68.90640 | 37896 ft | 440 kts | 185° |
| 2026-04-18 22:13 | 60.79231 | -68.89491 | 37880 ft | 440 kts | 185° |
| 2026-04-18 22:14 | 60.73174 | -68.88354 | 37886 ft | 440 kts | 185° |
| 2026-04-18 22:14 | 60.67062 | -68.87211 | 37870 ft | 441 kts | 185° |
| 2026-04-18 22:15 | 60.60961 | -68.86074 | 37876 ft | 441 kts | 185° |
| 2026-04-18 22:15 | 60.54835 | -68.84938 | 37860 ft | 441 kts | 185° |
| 2026-04-18 22:16 | 60.48736 | -68.83810 | 37865 ft | 441 kts | 185° |
| 2026-04-18 22:16 | 60.42606 | -68.82681 | 37843 ft | 441 kts | 185° |
| 2026-04-18 22:17 | 60.36519 | -68.81564 | 37847 ft | 442 kts | 185° |
| 2026-04-18 22:17 | 60.30406 | -68.80447 | 37834 ft | 442 kts | 185° |
| 2026-04-18 22:18 | 60.24274 | -68.79330 | 37840 ft | 442 kts | 185° |
| 2026-04-18 22:18 | 60.18130 | -68.78216 | 37825 ft | 442 kts | 185° |
| 2026-04-18 22:19 | 60.11997 | -68.77107 | 37829 ft | 443 kts | 185° |
| 2026-04-18 22:19 | 60.05863 | -68.76003 | 37814 ft | 443 kts | 185° |
| 2026-04-18 22:20 | 59.99700 | -68.74897 | 37813 ft | 444 kts | 185° |
| 2026-04-18 22:20 | 59.93584 | -68.73804 | 37795 ft | 444 kts | 185° |
| 2026-04-18 22:21 | 59.87434 | -68.72709 | 37798 ft | 444 kts | 185° |
| 2026-04-18 22:21 | 59.81251 | -68.71612 | 37784 ft | 445 kts | 185° |
| 2026-04-18 22:22 | 59.75091 | -68.70523 | 37792 ft | 445 kts | 185° |
| 2026-04-18 22:22 | 59.68923 | -68.69437 | 37771 ft | 445 kts | 185° |
| 2026-04-18 22:23 | 59.62754 | -68.68354 | 37777 ft | 445 kts | 185° |
| 2026-04-18 22:23 | 59.56589 | -68.67277 | 37675 ft | 446 kts | 185° |
| 2026-04-18 22:24 | 59.53462 | -68.66741 | 37057 ft | 452 kts | 185° |
| 2026-04-18 22:24 | 59.50362 | -68.66201 | 36489 ft | 450 kts | 185° |
| 2026-04-18 22:24 | 59.47229 | -68.65652 | 35828 ft | 449 kts | 185° |
| 2026-04-18 22:24 | 59.44107 | -68.65107 | 35141 ft | 448 kts | 186° |
| 2026-04-18 22:25 | 59.41040 | -68.64575 | 34435 ft | 449 kts | 186° |
| 2026-04-18 22:25 | 59.37916 | -68.64037 | 33712 ft | 451 kts | 186° |
| 2026-04-18 22:25 | 59.34796 | -68.63497 | 33132 ft | 446 kts | 186° |
| 2026-04-18 22:25 | 59.31708 | -68.62959 | 32541 ft | 442 kts | 185° |
| 2026-04-18 22:26 | 59.28660 | -68.62428 | 32025 ft | 437 kts | 185° |
| 2026-04-18 22:26 | 59.25642 | -68.61906 | 31511 ft | 433 kts | 185° |
| 2026-04-18 22:26 | 59.22655 | -68.61393 | 31001 ft | 429 kts | 185° |
| 2026-04-18 22:26 | 59.19721 | -68.60892 | 30498 ft | 426 kts | 185° |
| 2026-04-18 22:27 | 59.16777 | -68.60391 | 30010 ft | 423 kts | 185° |
| 2026-04-18 22:27 | 59.13854 | -68.59895 | 29485 ft | 420 kts | 185° |
| 2026-04-18 22:27 | 59.10965 | -68.59405 | 28911 ft | 417 kts | 185° |
| 2026-04-18 22:27 | 59.08078 | -68.58915 | 28398 ft | 412 kts | 185° |
| 2026-04-18 22:28 | 59.05237 | -68.58432 | 27886 ft | 408 kts | 185° |
| 2026-04-18 22:28 | 59.02416 | -68.57955 | 27375 ft | 405 kts | 185° |
| 2026-04-18 22:28 | 58.99616 | -68.57484 | 26858 ft | 402 kts | 185° |
| 2026-04-18 22:28 | 58.96842 | -68.57018 | 26351 ft | 399 kts | 184° |
| 2026-04-18 22:29 | 58.94082 | -68.56555 | 25848 ft | 396 kts | 184° |
| 2026-04-18 22:29 | 58.91344 | -68.56096 | 25371 ft | 394 kts | 184° |
| 2026-04-18 22:29 | 58.88624 | -68.55642 | 24872 ft | 392 kts | 184° |
| 2026-04-18 22:29 | 58.85905 | -68.55188 | 24378 ft | 390 kts | 184° |
| 2026-04-18 22:30 | 58.83206 | -68.54738 | 23895 ft | 388 kts | 183° |
| 2026-04-18 22:30 | 58.80523 | -68.54291 | 23391 ft | 387 kts | 183° |
| 2026-04-18 22:30 | 58.77877 | -68.53852 | 22817 ft | 385 kts | 182° |
| 2026-04-18 22:30 | 58.75220 | -68.53409 | 22274 ft | 383 kts | 182° |
| 2026-04-18 22:31 | 58.72576 | -68.52968 | 21785 ft | 379 kts | 182° |
| 2026-04-18 22:31 | 58.69961 | -68.52532 | 21277 ft | 376 kts | 182° |
| 2026-04-18 22:31 | 58.67357 | -68.52101 | 20779 ft | 374 kts | 182° |
| 2026-04-18 22:31 | 58.64771 | -68.51673 | 20284 ft | 371 kts | 182° |
| 2026-04-18 22:32 | 58.62201 | -68.51249 | 19795 ft | 369 kts | 182° |
| 2026-04-18 22:32 | 58.59657 | -68.50830 | 19327 ft | 367 kts | 182° |
| 2026-04-18 22:32 | 58.57113 | -68.50412 | 18832 ft | 366 kts | 182° |
| 2026-04-18 22:32 | 58.54587 | -68.49997 | 18371 ft | 364 kts | 182° |
| 2026-04-18 22:33 | 58.52061 | -68.49583 | 17878 ft | 362 kts | 181° |
| 2026-04-18 22:33 | 58.49564 | -68.49174 | 17337 ft | 360 kts | 181° |
| 2026-04-18 22:33 | 58.47058 | -68.48763 | 16832 ft | 358 kts | 181° |
| 2026-04-18 22:33 | 58.44611 | -68.48359 | 16555 ft | 349 kts | 181° |
| 2026-04-18 22:34 | 58.42215 | -68.47963 | 16226 ft | 342 kts | 181° |
| 2026-04-18 22:34 | 58.39852 | -68.47577 | 15792 ft | 339 kts | 181° |
| 2026-04-18 22:34 | 58.37533 | -68.47202 | 15331 ft | 338 kts | 181° |
| 2026-04-18 22:34 | 58.35207 | -68.46826 | 14880 ft | 336 kts | 181° |
| 2026-04-18 22:35 | 58.32874 | -68.46449 | 14416 ft | 334 kts | 181° |
| 2026-04-18 22:35 | 58.30569 | -68.46076 | 13959 ft | 332 kts | 181° |
| 2026-04-18 22:35 | 58.28273 | -68.45705 | 13505 ft | 330 kts | 181° |
| 2026-04-18 22:35 | 58.25991 | -68.45336 | 12984 ft | 328 kts | 181° |
| 2026-04-18 22:36 | 58.23721 | -68.44970 | 12522 ft | 325 kts | 181° |
| 2026-04-18 22:36 | 58.21480 | -68.44608 | 12057 ft | 322 kts | 181° |
| 2026-04-18 22:36 | 58.19285 | -68.44593 | 11815 ft | 305 kts | 195° |
| 2026-04-18 22:36 | 58.17333 | -68.45689 | 11745 ft | 285 kts | 208° |
| 2026-04-18 22:37 | 58.15615 | -68.47362 | 11647 ft | 270 kts | 213° |
| 2026-04-18 22:37 | 58.13953 | -68.49106 | 10918 ft | 280 kts | 213° |
| 2026-04-18 22:37 | 58.12210 | -68.50903 | 10441 ft | 283 kts | 212° |
| 2026-04-18 22:37 | 58.10419 | -68.52349 | 10235 ft | 281 kts | 202° |
| 2026-04-18 22:38 | 58.10131 | -68.52522 | 10200 ft | 282 kts | 202° |
| 2026-04-18 22:39 | 58.09318 | -68.53018 | 10092 ft | 284 kts | 202° |
| 2026-04-18 22:39 | 58.07409 | -68.54167 | 9850 ft | 290 kts | 202° |
| 2026-04-18 22:39 | 58.05543 | -68.55294 | 9572 ft | 278 kts | 202° |
| 2026-04-18 22:40 | 58.03784 | -68.56555 | 9276 ft | 263 kts | 210° |
| 2026-04-18 22:40 | 58.02243 | -68.58222 | 8973 ft | 250 kts | 219° |
| 2026-04-18 22:40 | 58.00943 | -68.60251 | 8699 ft | 242 kts | 228° |
| 2026-04-18 22:40 | 57.99868 | -68.62650 | 8421 ft | 240 kts | 237° |
| 2026-04-18 22:41 | 57.98966 | -68.65318 | 8174 ft | 242 kts | 240° |
| 2026-04-18 22:41 | 57.98101 | -68.68056 | 7899 ft | 244 kts | 242° |
| 2026-04-18 22:41 | 57.97275 | -68.70859 | 7634 ft | 244 kts | 243° |
| 2026-04-18 22:41 | 57.96479 | -68.73675 | 7366 ft | 244 kts | 243° |
| 2026-04-18 22:42 | 57.95671 | -68.76469 | 7100 ft | 243 kts | 243° |
| 2026-04-18 22:42 | 57.94702 | -68.79054 | 6774 ft | 243 kts | 220° |
| 2026-04-18 22:42 | 57.93133 | -68.80157 | 6489 ft | 242 kts | 187° |
| 2026-04-18 22:42 | 57.91516 | -68.79948 | 6380 ft | 229 kts | 167° |
| 2026-04-18 22:43 | 57.90277 | -68.78204 | 6196 ft | 225 kts | 122° |
| 2026-04-18 22:43 | 57.90008 | -68.75438 | 5943 ft | 216 kts | 75° |
| 2026-04-18 22:43 | 57.90775 | -68.73135 | 5476 ft | 208 kts | 36° |
| 2026-04-18 22:43 | 57.91893 | -68.71425 | 5072 ft | 208 kts | 36° |
| 2026-04-18 22:44 | 57.93017 | -68.69734 | 4678 ft | 205 kts | 34° |
| 2026-04-18 22:44 | 57.94122 | -68.68037 | 4302 ft | 203 kts | 37° |
| 2026-04-18 22:44 | 57.95159 | -68.66331 | 3993 ft | 196 kts | 39° |
| 2026-04-18 22:44 | 57.96161 | -68.64645 | 3557 ft | 192 kts | 39° |
| 2026-04-18 22:45 | 57.97155 | -68.62965 | 3075 ft | 191 kts | 40° |
| 2026-04-18 22:45 | 57.98100 | -68.61364 | 2787 ft | 176 kts | 40° |
| 2026-04-18 22:45 | 57.98991 | -68.59867 | 2523 ft | 167 kts | 39° |
| 2026-04-18 22:45 | 57.99866 | -68.58452 | 2172 ft | 167 kts | 40° |
| 2026-04-18 22:46 | 58.00725 | -68.57007 | 1932 ft | 162 kts | 41° |
| 2026-04-18 22:46 | 58.01536 | -68.55622 | 1684 ft | 158 kts | 40° |
| 2026-04-18 22:46 | 58.02331 | -68.54263 | 1447 ft | 151 kts | 40° |
| 2026-04-18 22:46 | 58.03095 | -68.52955 | 1212 ft | 147 kts | 40° |
| 2026-04-18 22:47 | 58.03859 | -68.51649 | 1018 ft | 150 kts | 40° |
| 2026-04-18 22:47 | 58.04631 | -68.50329 | 836 ft | 149 kts | 41° |
| 2026-04-18 22:47 | 58.05384 | -68.49043 | 754 ft | 142 kts | 44° |
| 2026-04-18 22:47 | 58.06098 | -68.47813 | 655 ft | 136 kts | 48° |
| 2026-04-18 22:48 | 58.06795 | -68.46623 | 519 ft | 134 kts | 46° |
| 2026-04-18 22:48 | 58.07462 | -68.45471 | 405 ft | 128 kts | 49° |
| 2026-04-18 22:48 | 58.08135 | -68.44365 | 286 ft | 131 kts | 47° |
| 2026-04-18 22:48 | 58.08803 | -68.43208 | 159 ft | 127 kts | 46° |
| 2026-04-18 22:49 | 58.09379 | -68.42215 | 142 ft | 91 kts | 42° |
| 2026-04-18 22:49 | 58.09728 | -68.41664 | 139 ft | 20 kts | 8° |
| 2026-04-18 22:49 | 58.09762 | -68.41697 | 137 ft | 6 kts | 308° |
| 2026-04-18 22:49 | 58.09773 | -68.41772 | 134 ft | 7 kts | 281° |
| 2026-04-18 22:50 | 58.09813 | -68.41890 | 122 ft | 15 kts | 311° |
| 2026-04-18 22:50 | 58.09868 | -68.42006 | 121 ft | 2 kts | 314° |
| 2026-04-18 22:50 | 58.09878 | -68.42026 | 121 ft | 2 kts | 311° |
| 2026-04-18 22:50 | 58.09882 | -68.42037 | 121 ft | 0 kts | 309° |
| 2026-04-18 22:51 | 58.09896 | -68.42068 | 122 ft | 5 kts | 309° |
| 2026-04-18 22:52 | 58.09926 | -68.42066 | 123 ft | 5 kts | 44° |
| 2026-04-18 22:52 | 58.09941 | -68.42021 | 119 ft | 1 kts | 95° |
| 2026-04-18 22:52 | 58.09937 | -68.42008 | 120 ft | 2 kts | 118° |
| 2026-04-18 22:52 | 58.09928 | -68.41985 | 121 ft | 2 kts | 129° |
| 2026-04-18 22:53 | 58.09919 | -68.41964 | 118 ft | 1 kts | 129° |
| 2026-04-18 22:53 | 58.09913 | -68.41952 | 118 ft | 0 kts | 130° |
| 2026-04-18 22:53 | 58.09913 | -68.41951 | 118 ft | 0 kts | 130° |